Time;durP1;ratioP1;P1;durP2;ratioP2;P2;SDS_P1;SDS_P2;PMS_P1;PMS_P2;Temp;Humidity;BMP_temperature;BMP_pressure;BME280_temperature;BME280_humidity;BME280_pressure;Samples;Min_cycle;Max_cycle;Signal;HPM_P1;HPM_P2
2023/06/20 00:01:20;;;;;;;12.38;7.70;;;18.80;99.90;;;;;;5017819;28;20519;-62
2023/06/20 00:03:46;;;;;;;10.98;7.18;;;18.80;99.90;;;;;;5017887;28;20054;-62
2023/06/20 00:06:12;;;;;;;14.25;7.43;;;18.80;99.90;;;;;;5017019;28;20046;-62
2023/06/20 00:08:38;;;;;;;10.90;7.28;;;18.80;99.90;;;;;;5018216;28;20211;-61
2023/06/20 00:11:04;;;;;;;10.63;7.35;;;18.80;99.90;;;;;;5016350;28;20049;-62
2023/06/20 00:13:29;;;;;;;11.80;7.80;;;18.70;99.90;;;;;;5018135;28;20042;-62
2023/06/20 00:15:57;;;;;;;10.63;7.75;;;18.70;99.90;;;;;;5016877;28;20042;-62
2023/06/20 00:18:24;;;;;;;9.90;7.45;;;18.70;99.90;;;;;;5017977;28;20463;-62
2023/06/20 00:20:53;;;;;;;13.48;8.57;;;18.70;99.90;;;;;;5017840;28;20096;-62
2023/06/20 00:23:20;;;;;;;12.32;7.93;;;18.70;99.90;;;;;;5016556;28;20049;-62
2023/06/20 00:25:46;;;;;;;12.48;7.65;;;18.70;99.90;;;;;;5022220;28;20103;-62
2023/06/20 00:28:14;;;;;;;12.20;7.47;;;18.70;99.90;;;;;;5039459;28;20057;-62
2023/06/20 00:30:39;;;;;;;13.27;7.72;;;18.70;99.90;;;;;;5040338;28;20129;-62
2023/06/20 00:33:05;;;;;;;12.88;7.05;;;18.60;99.90;;;;;;5039967;28;20038;-62
2023/06/20 00:35:30;;;;;;;11.32;7.93;;;18.60;99.90;;;;;;5041333;28;20037;-62
2023/06/20 00:37:56;;;;;;;12.10;8.15;;;18.60;99.90;;;;;;5040711;28;20064;-62
2023/06/20 00:40:22;;;;;;;12.43;8.80;;;18.60;99.90;;;;;;5040285;28;20050;-62
2023/06/20 00:42:48;;;;;;;12.32;8.05;;;18.60;99.90;;;;;;5025219;28;20053;-62
2023/06/20 00:45:28;;;;;;;15.85;8.60;;;18.60;99.90;;;;;;5034121;28;20069;-62
2023/06/20 00:47:55;;;;;;;16.42;8.30;;;18.60;99.90;;;;;;5030569;28;20050;-62
2023/06/20 00:50:20;;;;;;;13.82;7.97;;;18.50;99.90;;;;;;5019670;28;20038;-62
2023/06/20 00:52:48;;;;;;;16.40;9.65;;;18.60;99.90;;;;;;5020664;28;20135;-62
2023/06/20 00:55:14;;;;;;;12.40;8.38;;;18.60;99.90;;;;;;5020918;28;20042;-62
2023/06/20 00:57:43;;;;;;;15.75;8.52;;;18.50;99.90;;;;;;5029068;28;20129;-62
2023/06/20 01:00:12;;;;;;;13.30;8.65;;;18.40;99.90;;;;;;5041271;28;20041;-62
2023/06/20 01:02:38;;;;;;;16.13;9.50;;;18.40;99.90;;;;;;5038918;28;20804;-62
2023/06/20 01:05:04;;;;;;;14.23;9.70;;;18.40;99.90;;;;;;5041237;28;20049;-62
2023/06/20 01:07:44;;;;;;;15.23;9.45;;;18.40;99.90;;;;;;5039065;28;20046;-62
2023/06/20 01:10:30;;;;;;;16.80;10.00;;;18.40;99.90;;;;;;5040212;28;20622;-77
2023/06/20 01:13:07;;;;;;;15.70;9.68;;;18.40;99.90;;;;;;5048339;28;20038;-76
2023/06/20 01:15:52;;;;;;;12.02;8.73;;;18.40;99.90;;;;;;5033448;28;20057;-74
2023/06/20 01:18:44;;;;;;;13.05;9.80;;;18.40;99.90;;;;;;5043060;28;20103;-76
2023/06/20 01:21:17;;;;;;;15.20;11.15;;;18.40;99.90;;;;;;5022601;28;20056;-77
2023/06/20 03:58:54;;;;;;;22.63;12.02;;;18.60;99.90;;;;;;5047262;28;20143;-66
2023/06/20 04:01:19;;;;;;;19.35;12.07;;;18.60;99.90;;;;;;5034822;28;20489;-66
2023/06/20 04:03:45;;;;;;;17.95;12.32;;;18.60;99.90;;;;;;5054052;28;20047;-66
2023/06/20 04:06:11;;;;;;;20.02;10.85;;;18.60;99.90;;;;;;5053849;28;20056;-67
2023/06/20 04:08:38;;;;;;;23.40;11.68;;;18.60;99.90;;;;;;5052922;28;20041;-67
2023/06/20 04:11:03;;;;;;;18.75;11.07;;;18.60;99.90;;;;;;5053925;28;20043;-67
2023/06/20 04:13:29;;;;;;;15.05;10.68;;;18.60;99.90;;;;;;5053776;28;20124;-67
2023/06/20 04:15:55;;;;;;;19.95;11.35;;;18.60;99.90;;;;;;5052337;28;20071;-67
2023/06/20 04:18:20;;;;;;;18.73;11.73;;;18.60;99.90;;;;;;5052205;28;20475;-67
2023/06/20 04:20:46;;;;;;;17.17;10.82;;;18.60;99.90;;;;;;5053822;28;20045;-67
2023/06/20 04:23:12;;;;;;;18.23;12.10;;;18.70;99.90;;;;;;5053812;28;20076;-67
2023/06/20 04:25:38;;;;;;;15.95;11.52;;;18.70;99.90;;;;;;5053539;28;20443;-67
2023/06/20 04:28:04;;;;;;;14.85;11.10;;;18.70;99.90;;;;;;5052519;28;20057;-67
2023/06/20 04:30:29;;;;;;;13.90;10.25;;;18.70;99.90;;;;;;5054196;28;20068;-67
2023/06/20 04:32:55;;;;;;;17.10;11.02;;;18.70;99.90;;;;;;5043386;28;20132;-68
2023/06/20 04:35:21;;;;;;;15.52;11.18;;;18.70;99.90;;;;;;5053531;28;20044;-67
2023/06/20 04:37:51;;;;;;;18.90;10.90;;;18.70;99.90;;;;;;5033859;28;20567;-67
2023/06/20 04:40:17;;;;;;;19.55;11.25;;;18.70;99.90;;;;;;5033267;28;20038;-67
2023/06/20 04:42:45;;;;;;;16.05;10.85;;;18.70;99.90;;;;;;5042095;28;20110;-67
2023/06/20 04:45:11;;;;;;;16.10;11.25;;;18.70;99.90;;;;;;5051589;28;20040;-67
2023/06/20 04:47:37;;;;;;;16.77;11.48;;;18.80;99.90;;;;;;5051496;28;20057;-66
2023/06/20 04:50:03;;;;;;;20.13;11.60;;;18.80;99.90;;;;;;5051658;28;20053;-66
2023/06/20 04:52:30;;;;;;;17.10;11.00;;;18.80;99.90;;;;;;5052835;28;20041;-67
2023/06/20 04:55:02;;;;;;;19.05;10.90;;;18.90;99.90;;;;;;5053205;28;20419;-66
2023/06/20 04:57:29;;;;;;;19.42;11.57;;;18.90;99.90;;;;;;5053191;28;20071;-66
2023/06/20 04:59:55;;;;;;;17.65;11.27;;;18.90;99.90;;;;;;5051635;28;20055;-67
2023/06/20 05:02:20;;;;;;;18.52;12.05;;;19.00;99.90;;;;;;5037171;28;20045;-67
2023/06/20 05:04:46;;;;;;;20.25;11.93;;;19.00;99.90;;;;;;5031735;28;20051;-66
2023/06/20 05:07:12;;;;;;;15.25;11.10;;;19.00;99.90;;;;;;5032813;28;20743;-67
2023/06/20 05:09:37;;;;;;;18.42;11.70;;;19.00;99.90;;;;;;5032765;28;20053;-66
2023/06/20 05:12:04;;;;;;;19.25;12.23;;;19.00;99.90;;;;;;5032268;28;20159;-67
2023/06/20 05:14:29;;;;;;;17.00;10.75;;;19.10;99.90;;;;;;5032734;28;20052;-67
2023/06/20 05:16:55;;;;;;;17.92;11.38;;;19.10;99.90;;;;;;5031230;28;20407;-66
2023/06/20 05:19:21;;;;;;;17.73;11.65;;;19.10;99.90;;;;;;5032682;28;20115;-67
2023/06/20 05:21:46;;;;;;;18.65;11.55;;;19.20;99.90;;;;;;5032761;28;20049;-66
2023/06/20 05:24:12;;;;;;;15.75;11.27;;;19.20;99.90;;;;;;5032528;28;20045;-66
2023/06/20 05:26:38;;;;;;;19.13;11.35;;;19.20;99.90;;;;;;5032522;28;20092;-66
2023/06/20 05:29:03;;;;;;;18.25;11.23;;;19.20;99.90;;;;;;5032421;28;20045;-66
2023/06/20 05:31:29;;;;;;;15.63;11.38;;;19.30;99.90;;;;;;5032096;28;20045;-66
2023/06/20 05:33:55;;;;;;;18.90;11.35;;;19.30;99.90;;;;;;5030815;28;20088;-66
2023/06/20 05:36:21;;;;;;;16.95;11.55;;;19.30;99.90;;;;;;5032443;28;20073;-66
2023/06/20 05:38:49;;;;;;;22.27;12.23;;;19.30;99.90;;;;;;5032316;28;20040;-66
2023/06/20 05:41:18;;;;;;;17.05;11.10;;;19.40;99.90;;;;;;5030965;28;20485;-66
2023/06/20 05:43:44;;;;;;;17.63;12.05;;;19.40;99.90;;;;;;5030447;28;20400;-66
2023/06/20 05:46:10;;;;;;;22.90;12.80;;;19.40;99.90;;;;;;5030573;28;20121;-66
2023/06/20 05:48:36;;;;;;;18.33;12.57;;;19.40;99.90;;;;;;5032028;28;20104;-67
2023/06/20 05:51:03;;;;;;;16.58;12.15;;;19.40;99.90;;;;;;5055175;28;20033;-66
2023/06/20 05:53:29;;;;;;;15.38;11.15;;;19.50;99.90;;;;;;5051946;28;20053;-66
2023/06/20 05:55:55;;;;;;;21.30;12.57;;;19.60;99.90;;;;;;5051797;28;20094;-66
2023/06/20 05:58:20;;;;;;;18.23;13.75;;;19.60;99.90;;;;;;5051276;28;20522;-67
2023/06/20 06:00:46;;;;;;;20.05;13.13;;;19.50;99.90;;;;;;5051783;28;20496;-66
2023/06/20 06:03:15;;;;;;;18.73;12.25;;;19.60;99.90;;;;;;5051482;28;20045;-66
2023/06/20 06:05:40;;;;;;;20.10;12.45;;;19.60;99.90;;;;;;5050203;28;20119;-66
2023/06/20 06:08:06;;;;;;;19.30;13.60;;;19.70;99.90;;;;;;5051436;28;20196;-66
2023/06/20 06:10:32;;;;;;;17.70;12.52;;;19.70;99.90;;;;;;5050226;28;20033;-66
2023/06/20 06:12:58;;;;;;;18.90;13.05;;;19.70;99.90;;;;;;5051033;28;20457;-67
2023/06/20 06:15:24;;;;;;;19.35;12.68;;;19.70;99.90;;;;;;5033460;28;20080;-66
2023/06/20 06:17:50;;;;;;;19.73;13.23;;;19.70;99.90;;;;;;5051216;28;20052;-66
2023/06/20 06:20:18;;;;;;;18.90;12.30;;;19.70;99.90;;;;;;5042768;28;20530;-66
2023/06/20 06:22:44;;;;;;;17.88;12.63;;;19.80;99.90;;;;;;5050645;28;20045;-66
2023/06/20 06:25:13;;;;;;;18.95;13.20;;;19.80;99.90;;;;;;5051569;28;20041;-66
2023/06/20 06:27:38;;;;;;;18.25;12.90;;;19.80;99.90;;;;;;5050212;28;20048;-67
2023/06/20 06:30:05;;;;;;;23.90;12.57;;;19.80;99.90;;;;;;5051850;28;20037;-66
2023/06/20 06:32:33;;;;;;;18.70;14.32;;;19.80;99.90;;;;;;5051907;28;20137;-66
2023/06/20 06:35:00;;;;;;;22.63;12.68;;;19.80;99.90;;;;;;5062478;28;20499;-66
2023/06/20 06:37:29;;;;;;;18.98;13.55;;;19.90;99.90;;;;;;5050525;28;20055;-66
2023/06/20 06:39:56;;;;;;;22.02;12.82;;;19.90;99.90;;;;;;5050383;28;20107;-66
2023/06/20 06:42:23;;;;;;;18.20;13.23;;;20.00;99.90;;;;;;5051039;28;20087;-67
2023/06/20 06:44:49;;;;;;;18.02;12.68;;;20.00;99.90;;;;;;5051399;28;20048;-67
2023/06/20 06:47:15;;;;;;;21.40;13.27;;;20.10;99.90;;;;;;5042496;28;20033;-66
2023/06/20 06:49:40;;;;;;;22.67;13.98;;;20.10;99.90;;;;;;5041792;28;20037;-67
2023/06/20 06:52:07;;;;;;;17.92;13.07;;;20.10;99.90;;;;;;5050293;28;20102;-66
2023/06/20 06:54:32;;;;;;;19.65;12.23;;;20.20;99.90;;;;;;5050996;28;20075;-65
2023/06/20 06:56:58;;;;;;;18.60;12.30;;;20.20;99.90;;;;;;5030823;28;20093;-66
2023/06/20 06:59:24;;;;;;;16.90;12.18;;;20.30;99.90;;;;;;5030789;28;20049;-66
2023/06/20 07:01:51;;;;;;;17.95;12.50;;;20.30;99.90;;;;;;5030985;28;20087;-66
2023/06/20 07:04:17;;;;;;;16.05;13.52;;;20.30;99.90;;;;;;5038579;28;20136;-66
2023/06/20 07:06:43;;;;;;;19.13;12.63;;;20.30;99.90;;;;;;5029587;28;20120;-66
2023/06/20 07:09:09;;;;;;;21.08;13.65;;;20.30;99.90;;;;;;5046817;28;20437;-66
2023/06/20 07:11:35;;;;;;;18.98;13.25;;;20.40;99.90;;;;;;5050459;28;20045;-66
2023/06/20 07:14:01;;;;;;;17.58;13.25;;;20.30;99.90;;;;;;5050056;28;20106;-66
2023/06/20 07:16:28;;;;;;;18.48;13.65;;;20.30;99.90;;;;;;5029890;28;20100;-65
2023/06/20 07:18:54;;;;;;;17.35;12.90;;;20.30;99.90;;;;;;5034697;28;20397;-65
2023/06/20 07:21:19;;;;;;;19.83;12.95;;;20.40;99.90;;;;;;5030933;28;20037;-65
2023/06/20 07:23:45;;;;;;;18.70;13.23;;;20.30;99.90;;;;;;5047139;28;20048;-65
2023/06/20 07:26:11;;;;;;;20.65;13.57;;;20.30;99.90;;;;;;5035264;28;20500;-64
2023/06/20 07:28:37;;;;;;;19.65;14.20;;;20.30;99.90;;;;;;5029154;28;20054;-65
2023/06/20 07:31:02;;;;;;;19.65;12.82;;;20.30;99.90;;;;;;5030407;28;20045;-64
2023/06/20 07:33:28;;;;;;;16.73;13.38;;;20.40;99.90;;;;;;5031032;28;20053;-65
2023/06/20 07:35:54;;;;;;;19.55;13.35;;;20.40;99.90;;;;;;5034599;28;20457;-65
2023/06/20 07:38:20;;;;;;;21.35;13.23;;;20.40;99.90;;;;;;5034082;28;20045;-65
2023/06/20 07:40:46;;;;;;;19.75;13.00;;;20.40;99.90;;;;;;5034727;28;20041;-65
2023/06/20 07:43:11;;;;;;;17.98;13.65;;;20.40;99.90;;;;;;5033539;28;20538;-65
2023/06/20 07:45:37;;;;;;;19.40;14.07;;;20.40;99.90;;;;;;5034601;28;20053;-65
2023/06/20 07:48:04;;;;;;;17.92;13.73;;;20.40;99.90;;;;;;5034372;28;20045;-65
2023/06/20 07:50:30;;;;;;;22.95;14.45;;;20.30;99.90;;;;;;5034524;28;20116;-65
2023/06/20 07:52:56;;;;;;;20.50;13.82;;;20.30;99.90;;;;;;5034265;28;20429;-66
2023/06/20 07:55:22;;;;;;;21.85;14.20;;;20.30;99.90;;;;;;5034261;28;20409;-65
2023/06/20 07:57:53;;;;;;;19.77;13.68;;;20.40;99.90;;;;;;5033906;28;20115;-65
2023/06/20 08:00:20;;;;;;;17.55;13.98;;;20.40;99.90;;;;;;5034032;28;20053;-64
2023/06/20 08:02:46;;;;;;;26.17;15.15;;;20.50;99.90;;;;;;5032610;28;20125;-64
2023/06/20 08:05:11;;;;;;;19.25;14.00;;;20.40;99.90;;;;;;5034086;28;20105;-65
2023/06/20 08:07:37;;;;;;;20.42;13.65;;;20.40;99.90;;;;;;5032341;28;20072;-65
2023/06/20 08:10:04;;;;;;;21.33;14.35;;;20.50;99.90;;;;;;5034125;28;20049;-65
2023/06/20 08:12:30;;;;;;;19.13;14.35;;;20.70;99.90;;;;;;5033767;28;20033;-65
2023/06/20 08:14:55;;;;;;;24.40;14.43;;;20.90;99.90;;;;;;5034161;28;20114;-65
2023/06/20 08:17:21;;;;;;;17.08;14.02;;;21.00;99.90;;;;;;5033763;28;20174;-64
2023/06/20 08:19:47;;;;;;;18.55;13.68;;;21.30;99.90;;;;;;5034073;28;20120;-65
2023/06/20 08:22:12;;;;;;;19.55;14.70;;;21.50;99.90;;;;;;5033363;28;20481;-65
2023/06/20 08:24:38;;;;;;;21.38;14.98;;;21.60;99.90;;;;;;5032379;28;20641;-65
2023/06/20 08:27:04;;;;;;;18.13;14.02;;;21.60;99.90;;;;;;5034178;28;20041;-64
2023/06/20 08:29:30;;;;;;;24.73;15.13;;;21.60;99.90;;;;;;5033868;28;20037;-64
2023/06/20 08:31:56;;;;;;;20.25;14.73;;;21.70;99.90;;;;;;5033560;28;20045;-64
2023/06/20 08:34:21;;;;;;;17.80;13.32;;;21.70;99.90;;;;;;5033726;28;20045;-65
2023/06/20 08:36:47;;;;;;;23.50;15.18;;;21.80;99.90;;;;;;5033078;28;20128;-64
2023/06/20 08:39:13;;;;;;;21.95;13.40;;;21.80;99.90;;;;;;5041292;28;20045;-64
2023/06/20 08:41:38;;;;;;;20.58;13.77;;;21.90;99.90;;;;;;5053152;28;20067;-64
2023/06/20 08:44:04;;;;;;;13.75;11.27;;;22.00;99.90;;;;;;5053499;28;20087;-65
2023/06/20 08:46:31;;;;;;;14.02;10.48;;;22.00;99.90;;;;;;5052435;28;20474;-64
2023/06/20 08:48:57;;;;;;;14.20;10.40;;;22.20;99.90;;;;;;5051831;28;20053;-64
2023/06/20 08:51:26;;;;;;;12.32;10.02;;;22.30;99.90;;;;;;5053019;28;20045;-64
2023/06/20 08:53:54;;;;;;;12.20;10.35;;;22.50;99.90;;;;;;5052942;28;20042;-65
2023/06/20 08:56:20;;;;;;;12.13;10.20;;;22.60;99.90;;;;;;5053121;28;20045;-65
2023/06/20 08:58:47;;;;;;;13.68;11.35;;;22.80;99.90;;;;;;5052657;28;20048;-64
2023/06/20 09:01:12;;;;;;;14.95;11.10;;;23.00;99.90;;;;;;5052754;28;20049;-64
2023/06/20 09:03:39;;;;;;;14.20;12.05;;;22.90;99.90;;;;;;5052773;28;20065;-64
2023/06/20 09:06:05;;;;;;;20.70;11.52;;;23.00;99.90;;;;;;5052445;28;20056;-64
2023/06/20 09:08:43;;;;;;;12.73;10.45;;;23.10;99.90;;;;;;5052965;28;20444;-64
2023/06/20 09:11:11;;;;;;;13.85;10.68;;;23.40;99.90;;;;;;5052948;28;20045;-64
2023/06/20 09:13:37;;;;;;;12.40;10.00;;;23.40;99.90;;;;;;5052553;28;20063;-64
2023/06/20 09:16:08;;;;;;;11.52;9.63;;;23.50;99.90;;;;;;5052498;28;20052;-64
2023/06/20 09:18:35;;;;;;;14.88;9.52;;;23.70;99.90;;;;;;5051082;28;20048;-65
2023/06/20 09:21:04;;;;;;;12.65;10.57;;;23.80;99.90;;;;;;5051143;28;20037;-66
2023/06/20 09:23:33;;;;;;;11.48;9.82;;;23.90;99.90;;;;;;5052464;28;20045;-65
2023/06/20 09:26:18;;;;;;;11.80;9.32;;;24.10;99.90;;;;;;5052512;28;20052;-66
2023/06/20 09:28:44;;;;;;;10.90;9.68;;;24.00;99.90;;;;;;5052388;28;20037;-64
2023/06/20 09:31:10;;;;;;;10.15;9.10;;;24.10;99.90;;;;;;5052362;28;20044;-64
2023/06/20 09:33:37;;;;;;;11.77;9.27;;;24.30;99.90;;;;;;5052134;28;20036;-64
2023/06/20 09:36:15;;;;;;;14.25;9.55;;;24.30;99.90;;;;;;5052147;28;20479;-64
2023/06/20 09:38:50;;;;;;;11.63;9.18;;;24.40;99.90;;;;;;5052221;28;20164;-65
2023/06/20 09:41:19;;;;;;;10.15;8.73;;;24.50;99.90;;;;;;5052152;28;20044;-64
2023/06/20 09:43:45;;;;;;;12.00;9.73;;;24.60;99.90;;;;;;5052148;28;20048;-64
2023/06/20 09:46:11;;;;;;;13.63;7.80;;;24.60;99.90;;;;;;5042206;28;20388;-62
2023/06/20 09:48:38;;;;;;;12.32;7.60;;;24.80;99.90;;;;;;5044231;28;20032;-62
2023/06/20 09:51:06;;;;;;;8.80;7.60;;;24.90;99.90;;;;;;5041902;28;20139;-62
2023/06/20 09:53:47;;;;;;;10.90;8.13;;;25.00;99.90;;;;;;5040967;28;20045;-64
2023/06/20 09:56:15;;;;;;;9.60;7.25;;;25.10;99.90;;;;;;5047771;28;20064;-62
2023/06/20 09:58:45;;;;;;;8.10;6.40;;;25.20;99.90;;;;;;5035986;28;20053;-63
2023/06/20 10:01:14;;;;;;;8.57;6.57;;;25.30;99.90;;;;;;5051555;28;20448;-63
2023/06/20 10:03:41;;;;;;;11.18;6.80;;;25.40;99.90;;;;;;5033436;28;20095;-63
2023/06/20 10:06:08;;;;;;;8.40;6.70;;;25.60;99.90;;;;;;5031712;28;20072;-64
2023/06/20 10:08:35;;;;;;;11.55;6.65;;;25.60;99.90;;;;;;5038636;28;20518;-64
2023/06/20 10:11:01;;;;;;;9.20;7.25;;;25.80;99.90;;;;;;5051922;28;20120;-64
2023/06/20 10:13:28;;;;;;;7.50;6.70;;;25.80;99.90;;;;;;5051356;28;20139;-63
2023/06/20 10:15:54;;;;;;;10.57;6.57;;;25.90;99.90;;;;;;5051225;28;20084;-63
2023/06/20 10:18:32;;;;;;;9.10;6.97;;;26.00;99.90;;;;;;5049974;28;20072;-64
2023/06/20 10:21:01;;;;;;;10.18;6.78;;;25.90;99.90;;;;;;5045511;28;20405;-63
2023/06/20 10:23:32;;;;;;;8.00;6.38;;;25.90;99.90;;;;;;5051391;28;20127;-64
2023/06/20 10:26:02;;;;;;;7.10;6.18;;;25.80;99.90;;;;;;5033747;28;20053;-64
2023/06/20 10:28:28;;;;;;;9.85;6.22;;;25.80;99.90;;;;;;5031515;28;20057;-64
2023/06/20 10:30:57;;;;;;;10.02;7.22;;;25.60;99.90;;;;;;5031063;28;20089;-64
2023/06/20 10:33:43;;;;;;;8.90;6.45;;;25.60;99.90;;;;;;5044836;28;20071;-65
2023/06/20 10:36:13;;;;;;;10.98;6.00;;;25.70;99.90;;;;;;5044021;28;20041;-65
2023/06/20 10:38:59;;;;;;;7.30;5.53;;;25.90;99.90;;;;;;5050467;28;20052;-64
2023/06/20 10:41:27;;;;;;;6.03;5.13;;;25.90;99.90;;;;;;5048557;28;20120;-64
2023/06/20 10:44:01;;;;;;;7.95;6.43;;;26.00;99.90;;;;;;5051322;28;20641;-65
2023/06/20 10:46:36;;;;;;;7.45;5.97;;;26.00;99.90;;;;;;5050752;28;20041;-66
2023/06/20 10:49:07;;;;;;;8.75;6.45;;;26.00;99.90;;;;;;5051015;28;20076;-66
2023/06/20 10:51:43;;;;;;;8.10;6.35;;;26.00;99.90;;;;;;5050679;28;20407;-66
2023/06/20 10:54:12;;;;;;;6.43;5.60;;;26.20;99.90;;;;;;5050717;28;20098;-65
2023/06/20 10:56:38;;;;;;;8.20;5.55;;;26.20;99.90;;;;;;5050558;28;20041;-65
2023/06/20 10:59:15;;;;;;;6.80;5.72;;;26.20;99.90;;;;;;5050368;28;20126;-65
2023/06/20 11:01:41;;;;;;;9.25;5.88;;;26.20;99.90;;;;;;5050463;28;20077;-65
2023/06/20 11:04:08;;;;;;;7.13;5.75;;;26.20;99.90;;;;;;5050563;28;20041;-66
2023/06/20 11:06:34;;;;;;;8.50;5.72;;;26.10;99.90;;;;;;5050437;28;20524;-65
2023/06/20 11:09:00;;;;;;;7.95;5.78;;;26.00;99.90;;;;;;5050201;28;20458;-66
2023/06/20 11:11:41;;;;;;;8.68;5.68;;;26.00;99.90;;;;;;5050654;28;20037;-66
2023/06/20 11:14:15;;;;;;;7.23;5.63;;;26.20;99.90;;;;;;5049367;28;20037;-66
2023/06/20 11:16:42;;;;;;;7.18;5.28;;;26.30;99.90;;;;;;5049467;28;20135;-66
2023/06/20 11:19:08;;;;;;;9.75;5.28;;;26.40;99.90;;;;;;5047855;28;20131;-66
2023/06/20 11:21:34;;;;;;;8.23;5.70;;;26.50;99.90;;;;;;5044452;28;20132;-66
2023/06/20 11:24:04;;;;;;;6.65;5.20;;;26.60;99.90;;;;;;5039409;28;20037;-65
2023/06/20 11:26:34;;;;;;;7.22;5.35;;;26.70;99.90;;;;;;5034956;28;20520;-66
2023/06/20 11:29:02;;;;;;;10.63;6.47;;;26.80;99.90;;;;;;5034716;28;20072;-66
2023/06/20 11:31:28;;;;;;;8.27;6.13;;;26.90;99.90;;;;;;5038291;28;20446;-65
2023/06/20 11:34:11;;;;;;;7.57;6.13;;;26.90;99.90;;;;;;5039465;28;20527;-64
2023/06/20 11:36:39;;;;;;;9.60;6.20;;;26.90;99.90;;;;;;5050332;28;20037;-64
2023/06/20 11:39:06;;;;;;;10.82;6.20;;;27.00;99.90;;;;;;5050508;28;20081;-64
2023/06/20 11:41:33;;;;;;;9.90;6.30;;;27.10;99.90;;;;;;5050366;28;20041;-64
2023/06/20 11:43:59;;;;;;;8.77;6.15;;;27.10;99.90;;;;;;5050427;28;20053;-64
2023/06/20 11:46:25;;;;;;;8.52;6.10;;;27.10;99.90;;;;;;5050023;28;20087;-64
2023/06/20 11:48:53;;;;;;;7.20;6.20;;;27.00;99.90;;;;;;5050198;28;20053;-64
2023/06/20 11:51:20;;;;;;;7.70;6.25;;;26.90;99.90;;;;;;5036699;28;20505;-64
2023/06/20 11:53:46;;;;;;;9.65;6.43;;;26.80;99.90;;;;;;5048640;28;20396;-64
2023/06/20 11:56:14;;;;;;;7.82;6.50;;;26.70;99.90;;;;;;5045911;28;20041;-64
2023/06/20 11:58:40;;;;;;;6.90;6.10;;;26.80;99.90;;;;;;5050151;28;20136;-64
2023/06/20 12:01:13;;;;;;;7.90;5.53;;;26.80;99.90;;;;;;5049412;28;20041;-65
2023/06/20 12:03:41;;;;;;;7.60;6.05;;;27.00;99.90;;;;;;5048977;28;20347;-65
2023/06/20 12:06:39;;;;;;;7.47;6.30;;;27.00;99.90;;;;;;5051241;28;20087;-64
2023/06/20 12:09:11;;;;;;;7.70;5.22;;;27.00;99.90;;;;;;5035339;28;20045;-64
2023/06/20 12:11:52;;;;;;;7.53;5.63;;;27.10;99.90;;;;;;5039653;28;20040;-65
2023/06/20 12:14:18;;;;;;;7.85;5.43;;;27.20;99.90;;;;;;5045671;28;20099;-64
2023/06/20 12:16:44;;;;;;;9.57;5.43;;;27.30;99.90;;;;;;5042069;28;20041;-64
2023/06/20 12:19:11;;;;;;;6.25;5.15;;;27.50;99.90;;;;;;5050210;28;20045;-65
2023/06/20 12:21:38;;;;;;;7.28;4.85;;;27.70;99.90;;;;;;5046433;28;20488;-65
2023/06/20 12:24:05;;;;;;;5.57;4.30;;;27.60;99.90;;;;;;5033989;28;20133;-64
2023/06/20 12:26:31;;;;;;;5.32;4.82;;;27.60;99.70;;;;;;5033704;28;20420;-64
2023/06/20 12:28:57;;;;;;;7.40;5.40;;;27.70;99.90;;;;;;5033403;28;20034;-66
2023/06/20 12:31:24;;;;;;;7.18;5.38;;;27.70;99.90;;;;;;5033615;28;20050;-64
2023/06/20 12:33:50;;;;;;;7.75;5.40;;;27.50;99.80;;;;;;5032013;28;20432;-64
2023/06/20 12:36:16;;;;;;;7.57;5.53;;;27.40;99.90;;;;;;5033271;28;20558;-64
2023/06/20 12:38:42;;;;;;;5.70;5.15;;;27.50;99.90;;;;;;5033420;28;20040;-64
2023/06/20 12:41:08;;;;;;;5.07;4.57;;;27.50;99.90;;;;;;5033612;28;20137;-65
2023/06/20 12:43:34;;;;;;;9.38;5.47;;;27.50;99.90;;;;;;5033065;28;20144;-65
2023/06/20 12:46:00;;;;;;;12.65;5.28;;;27.50;99.90;;;;;;5033098;28;20045;-65
2023/06/20 12:48:26;;;;;;;7.70;4.88;;;27.50;99.90;;;;;;5046538;28;20127;-64
2023/06/20 12:50:52;;;;;;;8.35;5.05;;;27.50;99.90;;;;;;5052579;28;20120;-64
2023/06/20 12:53:18;;;;;;;6.40;5.32;;;27.50;99.90;;;;;;5053110;28;20041;-64
2023/06/20 12:55:47;;;;;;;6.28;5.15;;;27.50;99.90;;;;;;5053387;28;20029;-64
2023/06/20 12:58:14;;;;;;;8.95;5.53;;;27.60;99.50;;;;;;5037669;28;20060;-65
2023/06/20 13:00:41;;;;;;;6.72;5.63;;;27.60;99.40;;;;;;5032754;28;20045;-65
2023/06/20 13:03:08;;;;;;;7.63;5.25;;;27.60;99.50;;;;;;5033077;28;20496;-65
2023/06/20 13:05:35;;;;;;;5.97;4.85;;;27.50;99.70;;;;;;5032716;28;20413;-65
2023/06/20 13:08:04;;;;;;;5.78;4.50;;;27.50;99.80;;;;;;5031618;28;20061;-65
2023/06/20 13:10:33;;;;;;;5.28;4.47;;;27.50;99.60;;;;;;5031154;28;20045;-65
2023/06/20 13:12:58;;;;;;;6.57;4.97;;;27.60;99.80;;;;;;5032446;28;20145;-64
2023/06/20 13:15:32;;;;;;;6.10;5.15;;;27.80;99.40;;;;;;5032592;28;20321;-65
2023/06/20 13:18:01;;;;;;;5.00;4.60;;;27.80;98.90;;;;;;5032821;28;20045;-65
2023/06/20 13:20:28;;;;;;;5.35;4.30;;;28.00;99.30;;;;;;5032313;28;20045;-64
2023/06/20 13:22:55;;;;;;;8.23;4.93;;;28.00;99.50;;;;;;5032455;28;20416;-65
2023/06/20 13:25:20;;;;;;;8.93;4.32;;;28.10;99.10;;;;;;5032233;28;20092;-64
2023/06/20 13:27:48;;;;;;;5.85;4.70;;;27.90;99.10;;;;;;5032156;28;20130;-64
2023/06/20 13:30:17;;;;;;;5.65;5.07;;;27.80;98.80;;;;;;5032480;28;20045;-64
2023/06/20 13:32:46;;;;;;;8.88;5.80;;;27.70;99.60;;;;;;5031550;28;20557;-65
2023/06/20 13:35:12;;;;;;;7.70;5.70;;;27.60;99.60;;;;;;5030836;28;20045;-65
2023/06/20 13:37:39;;;;;;;6.10;5.40;;;27.50;99.70;;;;;;5032326;28;20052;-65
2023/06/20 13:40:12;;;;;;;4.85;4.40;;;27.50;99.80;;;;;;5030950;28;20084;-64
2023/06/20 13:42:42;;;;;;;5.63;4.32;;;27.70;99.50;;;;;;5031736;28;20049;-64
2023/06/20 13:45:12;;;;;;;5.65;4.30;;;27.80;99.30;;;;;;5031794;28;20065;-65
2023/06/20 13:47:40;;;;;;;12.80;3.75;;;27.90;99.20;;;;;;5037705;28;20405;-64
2023/06/20 13:50:06;;;;;;;3.75;3.45;;;27.90;98.80;;;;;;5037320;28;20046;-64
2023/06/20 13:52:33;;;;;;;6.47;4.53;;;28.10;98.50;;;;;;5048516;28;20128;-65
2023/06/20 13:55:00;;;;;;;6.35;5.43;;;28.00;98.50;;;;;;5032283;28;20549;-65
2023/06/20 13:57:25;;;;;;;5.40;4.90;;;28.00;99.00;;;;;;5043387;28;20126;-65
2023/06/20 13:59:51;;;;;;;11.23;4.90;;;28.00;99.60;;;;;;5049267;28;20115;-65
2023/06/20 14:02:17;;;;;;;6.22;4.45;;;28.20;98.80;;;;;;5037111;28;20041;-64
2023/06/20 14:04:43;;;;;;;4.70;4.20;;;28.20;98.90;;;;;;5031782;28;20033;-64
2023/06/20 14:07:10;;;;;;;5.60;4.32;;;28.30;99.00;;;;;;5035380;28;20370;-64
2023/06/20 14:09:36;;;;;;;5.95;4.32;;;28.30;98.80;;;;;;5031472;28;20037;-64
2023/06/20 14:12:03;;;;;;;4.65;4.25;;;28.20;98.60;;;;;;5031151;28;20044;-64
2023/06/20 14:14:30;;;;;;;4.75;4.18;;;28.40;98.70;;;;;;5031235;28;20053;-65
2023/06/20 14:16:56;;;;;;;6.93;4.30;;;28.50;98.40;;;;;;5031579;28;20461;-64
2023/06/20 14:19:22;;;;;;;5.30;4.55;;;28.30;97.60;;;;;;5032036;28;20124;-64
2023/06/20 14:21:47;;;;;;;6.25;4.15;;;28.20;98.30;;;;;;5031708;28;20175;-64
2023/06/20 14:24:13;;;;;;;4.57;4.07;;;28.20;98.40;;;;;;5030946;28;20095;-65
2023/06/20 14:26:39;;;;;;;4.72;4.22;;;28.30;98.20;;;;;;5031400;28;20041;-64
2023/06/20 14:29:06;;;;;;;5.07;3.97;;;28.30;98.10;;;;;;5035130;28;20053;-65
2023/06/20 14:31:32;;;;;;;5.28;4.43;;;28.40;98.40;;;;;;5050887;28;20037;-64
2023/06/20 14:33:58;;;;;;;5.40;4.13;;;28.40;98.10;;;;;;5051074;28;20473;-65
2023/06/20 14:36:28;;;;;;;5.65;4.30;;;28.40;98.00;;;;;;5050809;28;20156;-64
2023/06/20 14:38:54;;;;;;;5.32;3.75;;;28.40;98.20;;;;;;5051211;28;20102;-63
2023/06/20 14:41:21;;;;;;;4.65;3.83;;;28.30;98.20;;;;;;5050742;28;20037;-65
2023/06/20 14:43:46;;;;;;;5.55;4.95;;;28.30;98.30;;;;;;5050410;28;20040;-65
2023/06/20 14:46:12;;;;;;;7.22;5.32;;;28.20;98.60;;;;;;5050926;28;20044;-64
2023/06/20 14:48:38;;;;;;;5.53;5.03;;;28.20;98.60;;;;;;5051313;28;20099;-64
2023/06/20 14:51:04;;;;;;;6.43;5.30;;;28.20;98.90;;;;;;5050924;28;20044;-64
2023/06/20 14:53:30;;;;;;;6.75;4.85;;;28.20;98.60;;;;;;5040425;28;20052;-65
2023/06/20 14:55:59;;;;;;;6.47;4.90;;;28.20;99.00;;;;;;5039801;28;20103;-64
2023/06/20 14:58:25;;;;;;;7.38;4.90;;;28.20;98.50;;;;;;5043412;28;20069;-65
2023/06/20 15:00:51;;;;;;;10.15;4.97;;;28.20;98.90;;;;;;5037337;28;20045;-66
2023/06/20 15:03:17;;;;;;;11.15;4.63;;;28.20;99.10;;;;;;5030541;28;20037;-66
2023/06/20 15:05:44;;;;;;;6.28;4.47;;;28.20;98.60;;;;;;5034152;28;20049;-66
2023/06/20 15:08:10;;;;;;;5.15;4.63;;;28.20;98.60;;;;;;5049983;28;20099;-65
2023/06/20 15:10:36;;;;;;;5.72;4.72;;;28.20;98.80;;;;;;5048853;28;20040;-66
2023/06/20 15:13:02;;;;;;;6.70;4.57;;;28.20;98.60;;;;;;5047083;28;20033;-65